Time;durP1;ratioP1;P1;durP2;ratioP2;P2;SDS_P1;SDS_P2;PMS_P1;PMS_P2;Temp;Humidity;BMP_temperature;BMP_pressure;BME280_temperature;BME280_humidity;BME280_pressure;Samples;Min_cycle;Max_cycle;Signal;HPM_P1;HPM_P2
2022/08/22 00:02:50;;;;;;;1.85;0.60;;;22.30;45.90;;;;;;2324065;54;20998;-73
2022/08/22 00:05:56;;;;;;;1.90;0.73;;;22.30;45.90;;;;;;2546098;53;20954;-69
2022/08/22 00:11:01;;;;;;;;;;;22.30;46.20;;;;;;2560957;53;20934;-70
2022/08/22 00:13:55;;;;;;;2.45;0.60;;;22.30;46.30;;;;;;2568723;53;20180;-72
2022/08/22 00:16:29;;;;;;;1.87;0.60;;;22.20;46.00;;;;;;2320819;54;21011;-70
2022/08/22 00:19:04;;;;;;;1.70;0.65;;;22.20;46.10;;;;;;2563800;53;21072;-71
2022/08/22 00:21:38;;;;;;;1.98;0.80;;;22.20;46.40;;;;;;2301637;55;21045;-70
2022/08/22 00:24:36;;;;;;;2.67;0.90;;;22.10;46.40;;;;;;2548340;53;20958;-73
2022/08/22 00:27:14;;;;;;;1.95;0.77;;;22.10;46.60;;;;;;2547439;53;20946;-70
2022/08/22 00:30:15;;;;;;;1.90;0.70;;;22.10;46.50;;;;;;2555525;53;21026;-70
2022/08/22 00:32:53;;;;;;;2.47;0.90;;;22.10;46.80;;;;;;2341047;55;21093;-69
2022/08/22 00:35:38;;;;;;;2.55;0.80;;;22.10;46.70;;;;;;2547867;53;20973;-71
2022/08/22 00:38:27;;;;;;;2.83;1.30;;;22.10;46.80;;;;;;2341453;54;20949;-70
2022/08/22 00:41:04;;;;;;;2.87;0.82;;;22.00;46.70;;;;;;2327023;54;20982;-69
2022/08/22 00:43:52;;;;;;;3.80;1.05;;;22.00;46.50;;;;;;2311370;54;20950;-70
2022/08/22 00:48:16;;;;;;;1.60;0.70;;;22.00;46.70;;;;;;2315346;54;20985;-70
2022/08/22 00:53:45;;;;;;;1.77;0.60;;;21.90;46.50;;;;;;2326246;54;21004;-70
2022/08/22 00:57:14;;;;;;;1.37;0.50;;;21.80;46.40;;;;;;2339602;54;20960;-71
2022/08/22 01:00:13;;;;;;;2.75;0.57;;;21.80;46.30;;;;;;2327328;54;20968;-69
2022/08/22 01:05:56;;;;;;;1.98;0.70;;;21.70;46.30;;;;;;2553369;53;20946;-69
2022/08/22 01:09:01;;;;;;;1.30;0.65;;;21.60;46.20;;;;;;2526298;54;21003;-69
2022/08/22 01:12:04;;;;;;;0.95;0.52;;;21.50;46.30;;;;;;2318315;54;20912;-69
2022/08/22 01:15:04;;;;;;;2.50;0.62;;;21.50;46.30;;;;;;2342424;54;20952;-69
2022/08/22 01:18:03;;;;;;;1.70;0.70;;;21.40;46.40;;;;;;2321171;54;20945;-69
2022/08/22 01:25:16;;;;;;;2.50;1.08;;;21.30;46.50;;;;;;2552251;53;20988;-72
2022/08/22 01:28:22;;;;;;;1.40;0.60;;;21.30;46.60;;;;;;2316410;54;20990;-69
2022/08/22 01:31:25;;;;;;;2.95;0.60;;;21.20;46.50;;;;;;2573894;53;20978;-69
2022/08/22 01:37:40;;;;;;;1.98;0.70;;;21.10;46.50;;;;;;2558090;53;20068;-69
2022/08/22 01:40:28;;;;;;;2.10;0.80;;;21.00;46.70;;;;;;2328319;54;21042;-69
2022/08/22 01:44:11;;;;;;;4.93;0.73;;;20.90;46.70;;;;;;2551216;53;20943;-70
2022/08/22 01:46:57;;;;;;;2.35;0.80;;;20.90;46.90;;;;;;2331391;54;21481;-72
2022/08/22 01:49:36;;;;;;;2.00;0.80;;;20.80;46.90;;;;;;2556265;53;21056;-70
2022/08/22 01:52:58;;;;;;;2.42;1.08;;;20.70;47.00;;;;;;2310531;54;21897;-71
2022/08/22 01:55:31;;;;;;;2.12;0.82;;;20.70;47.10;;;;;;2332939;54;21000;-68
2022/08/22 01:58:12;;;;;;;2.17;0.77;;;20.70;47.50;;;;;;2333744;54;20968;-68
2022/08/22 02:02:48;;;;;;;2.65;0.90;;;20.70;47.40;;;;;;2566696;53;20954;-72
2022/08/22 02:05:30;;;;;;;3.03;0.60;;;20.60;47.50;;;;;;2341970;54;20978;-70
2022/08/22 02:10:40;;;;;;;1.73;0.70;;;20.60;47.20;;;;;;2323279;54;21520;-69
2022/08/22 02:14:38;;;;;;;1.17;0.60;;;20.50;47.40;;;;;;2553715;53;21030;-71
2022/08/22 02:21:33;;;;;;;1.92;0.80;;;20.50;47.80;;;;;;2318944;54;21010;-71
2022/08/22 02:24:02;;;;;;;2.50;0.75;;;20.40;47.60;;;;;;2551684;53;21247;-70
2022/08/22 02:26:43;;;;;;;1.87;0.70;;;20.40;47.40;;;;;;2319954;54;20947;-69
2022/08/22 02:29:14;;;;;;;1.60;0.68;;;20.40;47.70;;;;;;2325652;54;20961;-70
2022/08/22 02:32:24;;;;;;;2.15;0.93;;;20.30;47.50;;;;;;2551301;53;20974;-69
2022/08/22 02:35:29;;;;;;;2.35;0.88;;;20.30;47.80;;;;;;2557137;53;21060;-70
2022/08/22 02:38:28;;;;;;;2.33;0.80;;;20.20;47.90;;;;;;2558217;53;21040;-70
2022/08/22 02:41:25;;;;;;;2.10;0.73;;;20.20;48.10;;;;;;2326666;54;21017;-70
2022/08/22 02:47:34;;;;;;;2.80;0.80;;;20.10;48.30;;;;;;2322594;54;21068;-68
2022/08/22 02:51:27;;;;;;;2.33;0.82;;;20.10;48.10;;;;;;2342061;54;20972;-69
2022/08/22 03:00:47;;;;;;;1.73;0.70;;;20.10;48.40;;;;;;2323801;54;21039;-70
2022/08/22 03:03:19;;;;;;;2.12;0.95;;;20.00;48.00;;;;;;2563243;53;21160;-69
2022/08/22 03:05:58;;;;;;;2.10;0.80;;;20.00;48.00;;;;;;2305677;54;20997;-69
2022/08/22 03:08:30;;;;;;;2.10;0.90;;;19.90;48.30;;;;;;2548181;53;20998;-69
2022/08/22 03:11:20;;;;;;;1.98;0.70;;;19.90;48.20;;;;;;2334908;54;20925;-69
2022/08/22 03:14:39;;;;;;;3.85;0.98;;;19.80;48.40;;;;;;2338136;55;20959;-70
2022/08/22 03:21:51;;;;;;;2.03;0.82;;;19.80;49.20;;;;;;2569769;53;21771;-68
2022/08/22 03:24:33;;;;;;;2.42;0.77;;;19.80;49.00;;;;;;2323253;54;21736;-71
2022/08/22 03:27:16;;;;;;;3.37;1.00;;;19.70;48.80;;;;;;2563117;53;21002;-69
2022/08/22 03:29:44;;;;;;;2.45;1.08;;;19.70;48.90;;;;;;2320182;54;21062;-69
2022/08/22 03:35:14;;;;;;;2.62;1.17;;;19.70;48.70;;;;;;2324520;54;21015;-72
2022/08/22 03:37:42;;;;;;;2.45;1.00;;;19.60;49.50;;;;;;2336403;54;21016;-68
2022/08/22 03:46:49;;;;;;;1.45;0.68;;;19.60;48.80;;;;;;2326336;54;20992;-71
2022/08/22 03:50:21;;;;;;;1.52;0.62;;;19.60;49.20;;;;;;2552628;53;21000;-70
2022/08/22 04:03:07;;;;;;;2.05;0.70;;;19.50;49.20;;;;;;2290929;55;21049;-75
2022/08/22 04:06:03;;;;;;;1.42;0.50;;;19.40;48.90;;;;;;2380262;55;20952;-74
2022/08/22 04:09:16;;;;;;;2.37;0.65;;;19.40;48.90;;;;;;2264709;55;21992;-74
2022/08/22 04:13:04;;;;;;;2.03;0.73;;;19.40;49.10;;;;;;2304616;55;20968;-73
2022/08/22 04:16:32;;;;;;;1.33;0.60;;;19.30;49.10;;;;;;2267615;55;20961;-73
2022/08/22 04:26:05;;;;;;;1.70;0.70;;;19.30;49.40;;;;;;2266328;56;21112;-73
2022/08/22 04:28:46;;;;;;;1.52;0.60;;;19.30;49.30;;;;;;2263311;55;20973;-72
2022/08/22 04:31:16;;;;;;;2.20;0.75;;;19.20;49.10;;;;;;2265851;56;21018;-73
2022/08/22 04:33:56;;;;;;;2.80;0.80;;;19.10;49.00;;;;;;2266646;55;21000;-72
2022/08/22 04:36:36;;;;;;;2.00;0.80;;;19.10;49.40;;;;;;2264324;56;20988;-72
2022/08/22 04:41:49;;;;;;;1.98;0.70;;;19.00;49.30;;;;;;2266228;55;21012;-75
2022/08/22 04:44:24;;;;;;;2.75;0.90;;;19.00;49.60;;;;;;2269706;55;20993;-72
2022/08/22 04:47:02;;;;;;;2.30;0.90;;;19.00;49.60;;;;;;2264668;56;20975;-71
2022/08/22 04:49:36;;;;;;;3.45;0.98;;;19.00;49.80;;;;;;2265149;56;21075;-75
2022/08/22 04:52:11;;;;;;;2.40;1.00;;;19.00;49.90;;;;;;2267683;56;21081;-73
2022/08/22 04:57:52;;;;;;;2.00;0.90;;;19.00;49.90;;;;;;2263496;56;21021;-72
2022/08/22 05:00:18;;;;;;;1.58;0.60;;;18.90;49.90;;;;;;2269770;55;20960;-74
2022/08/22 05:02:50;;;;;;;2.03;0.85;;;18.90;49.60;;;;;;2265051;55;20996;-74
2022/08/22 05:05:25;;;;;;;2.22;1.00;;;18.90;49.80;;;;;;2264327;56;20962;-73
2022/08/22 05:07:57;;;;;;;2.53;1.10;;;18.90;49.90;;;;;;2270159;56;21535;-73
2022/08/22 05:10:40;;;;;;;2.53;0.95;;;18.90;50.00;;;;;;2266636;55;21003;-71
2022/08/22 05:13:09;;;;;;;2.33;1.10;;;18.90;50.40;;;;;;2270414;56;21068;-72
2022/08/22 05:15:37;;;;;;;1.90;0.80;;;18.90;50.20;;;;;;2315753;55;21520;-73
2022/08/22 05:18:06;;;;;;;2.10;1.00;;;18.80;50.20;;;;;;2266729;55;21852;-71
2022/08/22 05:20:53;;;;;;;3.55;1.12;;;18.80;50.30;;;;;;2351138;55;21025;-71
2022/08/22 05:23:24;;;;;;;2.00;0.95;;;18.90;50.80;;;;;;2288153;55;20956;-72
2022/08/22 05:25:51;;;;;;;2.70;1.30;;;18.90;50.70;;;;;;2268651;56;21818;-72
2022/08/22 05:28:33;;;;;;;2.92;1.50;;;18.90;50.70;;;;;;2261186;56;21013;-70
2022/08/22 05:31:10;;;;;;;3.47;1.20;;;18.90;50.90;;;;;;2265466;55;21456;-73
2022/08/22 05:34:02;;;;;;;1.90;0.93;;;18.90;50.70;;;;;;2249288;56;21059;-73
2022/08/22 05:36:31;;;;;;;2.67;1.15;;;19.00;51.10;;;;;;2310302;54;20985;-73
2022/08/22 05:39:04;;;;;;;2.03;0.90;;;19.00;50.90;;;;;;2263572;55;20956;-72
2022/08/22 05:41:34;;;;;;;3.42;1.60;;;19.00;50.90;;;;;;2279976;55;21705;-71
2022/08/22 05:44:02;;;;;;;2.70;1.30;;;19.00;51.00;;;;;;2268624;55;21012;-72
2022/08/22 05:46:45;;;;;;;2.75;1.20;;;19.00;51.10;;;;;;2265391;55;20973;-72
2022/08/22 05:49:18;;;;;;;2.40;1.00;;;19.00;51.50;;;;;;2265073;55;20943;-72
2022/08/22 05:52:21;;;;;;;2.62;0.93;;;19.00;51.30;;;;;;2486223;55;20972;-72
2022/08/22 05:54:55;;;;;;;2.92;1.10;;;19.10;51.60;;;;;;2267544;56;21068;-72
2022/08/22 05:57:32;;;;;;;2.97;1.30;;;19.10;51.30;;;;;;2261887;56;20990;-73
2022/08/22 06:00:02;;;;;;;2.72;1.20;;;19.20;51.70;;;;;;2490133;55;20969;-72
2022/08/22 06:03:15;;;;;;;2.93;1.33;;;19.10;51.50;;;;;;2274929;55;21492;-73
2022/08/22 06:05:43;;;;;;;2.40;1.20;;;19.20;51.90;;;;;;2355772;55;21455;-73
2022/08/22 06:08:18;;;;;;;2.62;1.20;;;19.20;51.60;;;;;;2265888;55;21758;-71
2022/08/22 06:10:47;;;;;;;3.25;1.40;;;19.20;51.80;;;;;;2265756;55;21035;-72
2022/08/22 06:13:25;;;;;;;2.87;1.23;;;19.30;51.80;;;;;;2266227;55;21531;-73
2022/08/22 06:16:15;;;;;;;2.95;1.40;;;19.30;51.90;;;;;;2266903;55;21042;-72
2022/08/22 06:18:43;;;;;;;2.70;1.25;;;19.30;52.10;;;;;;2265991;55;21335;-71
2022/08/22 06:21:37;;;;;;;2.62;1.25;;;19.40;52.00;;;;;;2265876;55;20979;-73
2022/08/22 06:24:07;;;;;;;4.28;1.60;;;19.50;52.40;;;;;;2409968;54;20940;-73
2022/08/22 06:26:39;;;;;;;3.15;1.37;;;19.50;52.00;;;;;;2266752;55;21052;-73
2022/08/22 06:29:07;;;;;;;3.12;1.40;;;19.60;52.20;;;;;;2267770;55;21429;-73
2022/08/22 06:31:38;;;;;;;2.75;1.27;;;19.60;52.10;;;;;;2264225;55;21521;-72
2022/08/22 06:34:21;;;;;;;5.83;1.47;;;19.60;52.20;;;;;;2266495;55;21049;-73
2022/08/22 06:36:49;;;;;;;2.17;1.20;;;19.70;52.50;;;;;;2265031;55;21012;-73
2022/08/22 06:39:30;;;;;;;4.00;1.35;;;19.80;52.40;;;;;;2265392;55;21430;-72
2022/08/22 06:42:04;;;;;;;3.17;1.40;;;19.80;52.90;;;;;;2469932;54;20960;-73
2022/08/22 06:44:49;;;;;;;3.35;1.10;;;19.90;52.80;;;;;;2263524;55;20919;-73
2022/08/22 06:47:23;;;;;;;2.03;0.90;;;20.00;53.10;;;;;;2264737;55;21000;-73
2022/08/22 06:49:54;;;;;;;3.92;1.00;;;20.00;53.60;;;;;;2387345;55;21076;-72
2022/08/22 06:52:22;;;;;;;3.43;1.20;;;20.10;52.90;;;;;;2266438;55;20955;-72
2022/08/22 06:54:54;;;;;;;2.20;1.10;;;20.20;53.00;;;;;;2308122;55;21713;-73
2022/08/22 06:57:32;;;;;;;2.83;1.20;;;20.30;53.10;;;;;;2342843;55;21003;-72
2022/08/22 06:59:58;;;;;;;3.50;1.70;;;20.40;53.40;;;;;;2262018;55;21027;-72
2022/08/22 07:02:32;;;;;;;2.62;1.17;;;20.50;53.40;;;;;;2266097;55;21054;-72
2022/08/22 07:05:00;;;;;;;3.10;1.40;;;20.60;53.60;;;;;;2329638;55;20971;-73
2022/08/22 07:07:28;;;;;;;3.62;1.20;;;20.70;53.50;;;;;;2266434;55;20956;-72
2022/08/22 07:09:55;;;;;;;3.85;1.12;;;20.70;53.50;;;;;;2266150;55;20980;-73
2022/08/22 07:12:57;;;;;;;3.87;1.77;;;20.80;53.60;;;;;;2264404;55;21023;-71
2022/08/22 07:15:35;;;;;;;3.50;1.62;;;20.90;53.80;;;;;;2265893;55;20939;-72
2022/08/22 07:18:07;;;;;;;3.37;1.25;;;21.10;53.90;;;;;;2265423;55;21019;-73
2022/08/22 07:20:40;;;;;;;4.22;1.40;;;21.20;53.80;;;;;;2269238;55;20940;-73
2022/08/22 07:23:10;;;;;;;4.85;1.45;;;21.20;53.70;;;;;;2261772;55;21007;-71
2022/08/22 07:25:47;;;;;;;3.85;1.33;;;21.30;53.70;;;;;;2278302;55;20984;-72
2022/08/22 07:28:34;;;;;;;4.10;1.42;;;21.40;53.70;;;;;;2265827;55;21397;-72
2022/08/22 07:31:07;;;;;;;2.85;1.37;;;21.50;53.60;;;;;;2477940;55;21867;-72
2022/08/22 07:33:43;;;;;;;3.60;1.52;;;21.60;53.70;;;;;;2266131;55;21012;-72
2022/08/22 07:36:29;;;;;;;5.37;2.05;;;21.70;53.70;;;;;;2266437;55;21003;-72
2022/08/22 07:41:06;;;;;;;4.05;1.58;;;21.80;53.80;;;;;;2265907;55;21863;-72
2022/08/22 07:43:51;;;;;;;3.50;1.37;;;22.00;53.90;;;;;;2266868;55;20980;-72
2022/08/22 07:46:41;;;;;;;4.32;1.60;;;22.10;53.90;;;;;;2415879;55;20988;-72
2022/08/22 07:49:23;;;;;;;3.55;1.70;;;22.30;53.80;;;;;;2263905;55;21499;-72
2022/08/22 07:51:54;;;;;;;4.20;1.87;;;22.30;53.60;;;;;;2264081;55;21055;-72
2022/08/22 07:54:39;;;;;;;3.60;1.55;;;22.40;53.70;;;;;;2269148;55;20955;-70
2022/08/22 07:57:14;;;;;;;5.03;1.20;;;22.50;53.70;;;;;;2266241;55;20952;-71
2022/08/22 07:59:46;;;;;;;2.80;1.08;;;22.60;53.50;;;;;;2264770;55;20952;-72
2022/08/22 08:02:12;;;;;;;;;;;22.70;53.50;;;;;;2269620;55;20971;-71
2022/08/22 08:04:39;;;;;;;2.90;1.20;;;22.80;53.40;;;;;;2287059;55;20133;-72
2022/08/22 08:07:07;;;;;;;2.60;1.10;;;22.90;53.30;;;;;;2266007;55;20972;-71
2022/08/22 08:09:36;;;;;;;3.85;1.30;;;23.00;53.20;;;;;;2273522;55;20968;-71
2022/08/22 08:12:03;;;;;;;2.83;1.12;;;23.00;53.20;;;;;;2266105;55;20982;-72
2022/08/22 08:14:30;;;;;;;4.28;1.70;;;23.10;53.30;;;;;;2265973;55;20948;-71
2022/08/22 08:17:38;;;;;;;3.62;1.23;;;23.20;53.20;;;;;;2269172;55;21083;-72
2022/08/22 08:20:09;;;;;;;3.10;1.35;;;23.40;53.20;;;;;;2263232;55;20955;-71
2022/08/22 08:22:38;;;;;;;3.45;1.37;;;23.40;53.00;;;;;;2451385;55;20992;-72
2022/08/22 08:25:10;;;;;;;3.60;1.42;;;23.50;52.90;;;;;;2266027;55;21551;-71
2022/08/22 08:31:55;;;;;;;2.72;1.23;;;23.70;52.70;;;;;;2270890;55;21717;-72
2022/08/22 08:34:23;;;;;;;4.10;1.33;;;23.80;52.60;;;;;;2267815;55;20912;-72
2022/08/22 08:37:19;;;;;;;3.10;1.48;;;23.90;52.60;;;;;;2273358;55;21007;-72
2022/08/22 08:39:54;;;;;;;3.00;1.10;;;24.10;52.60;;;;;;2269442;55;21007;-71
2022/08/22 08:43:47;;;;;;;2.55;1.20;;;24.10;52.60;;;;;;2261596;56;20987;-73
2022/08/22 08:47:39;;;;;;;3.22;1.17;;;24.20;52.50;;;;;;2310968;55;20928;-71
2022/08/22 08:52:57;;;;;;;4.20;1.30;;;24.40;52.70;;;;;;2274033;55;20984;-73
2022/08/22 08:57:02;;;;;;;2.55;1.10;;;24.60;52.60;;;;;;2266255;55;20956;-72
2022/08/22 08:59:53;;;;;;;2.55;1.00;;;24.70;52.30;;;;;;2269954;55;20972;-72
2022/08/22 09:03:13;;;;;;;3.12;1.20;;;24.80;52.20;;;;;;2264461;55;20971;-73
2022/08/22 09:09:34;;;;;;;3.15;1.37;;;24.90;52.10;;;;;;2267712;55;21084;-71
2022/08/22 09:13:57;;;;;;;2.90;1.33;;;25.10;52.10;;;;;;2264019;56;21074;-74
2022/08/22 09:17:03;;;;;;;2.80;1.00;;;25.20;51.90;;;;;;2266341;55;20979;-72
2022/08/22 09:21:00;;;;;;;3.35;1.45;;;25.30;51.50;;;;;;2264829;55;20989;-72
2022/08/22 09:24:05;;;;;;;2.90;1.20;;;25.40;51.80;;;;;;2266151;55;20948;-71
2022/08/22 09:26:47;;;;;;;3.53;1.40;;;25.50;51.70;;;;;;2265950;55;21753;-72
2022/08/22 09:29:38;;;;;;;3.75;1.45;;;25.60;51.30;;;;;;2265395;55;20932;-72
2022/08/22 09:32:42;;;;;;;3.50;1.58;;;25.70;51.40;;;;;;2269824;55;21127;-71
2022/08/22 09:35:40;;;;;;;2.72;1.37;;;25.70;50.90;;;;;;2246352;56;20992;-71
2022/08/22 09:38:54;;;;;;;3.22;1.33;;;25.80;51.10;;;;;;2270040;55;21008;-72
2022/08/22 09:41:43;;;;;;;3.92;1.60;;;25.90;50.80;;;;;;2262758;55;20995;-71
2022/08/22 09:44:58;;;;;;;3.30;1.45;;;26.00;50.90;;;;;;2267449;55;21040;-72
2022/08/22 09:47:33;;;;;;;2.97;1.30;;;26.10;50.70;;;;;;2264738;55;20964;-72
2022/08/22 09:50:19;;;;;;;3.35;1.33;;;26.10;50.40;;;;;;2265181;55;21841;-71
2022/08/22 09:55:47;;;;;;;3.72;1.90;;;26.20;50.20;;;;;;2265749;55;21929;-70
2022/08/22 10:01:02;;;;;;;3.70;1.10;;;26.30;50.20;;;;;;2267267;55;20971;-71
2022/08/22 10:04:38;;;;;;;2.40;0.90;;;26.50;50.00;;;;;;2266640;55;20923;-72
2022/08/22 10:10:05;;;;;;;2.70;1.00;;;26.60;49.80;;;;;;2417586;55;20990;-73
2022/08/22 10:12:51;;;;;;;2.35;0.95;;;26.70;49.80;;;;;;2267191;55;20985;-73
2022/08/22 10:15:40;;;;;;;3.65;1.60;;;26.80;49.30;;;;;;2265335;55;20951;-71
2022/08/22 10:19:21;;;;;;;3.62;1.17;;;26.90;49.20;;;;;;2266138;55;21416;-71
2022/08/22 10:23:43;;;;;;;2.72;1.12;;;26.90;49.20;;;;;;2269324;55;21374;-72
2022/08/22 10:26:25;;;;;;;2.12;1.10;;;27.10;48.80;;;;;;2271781;55;21785;-71
2022/08/22 10:30:21;;;;;;;3.65;1.15;;;27.20;48.90;;;;;;2263221;55;21083;-72
2022/08/22 10:32:56;;;;;;;2.40;1.02;;;27.20;48.50;;;;;;2244199;56;21421;-73
2022/08/22 10:35:31;;;;;;;5.32;1.58;;;27.30;48.50;;;;;;2265471;55;20988;-74
2022/08/22 10:38:05;;;;;;;3.65;1.20;;;27.40;48.60;;;;;;2311286;55;20980;-72
2022/08/22 10:40:47;;;;;;;2.70;1.20;;;27.40;49.30;;;;;;2263701;56;20928;-71
2022/08/22 10:43:22;;;;;;;3.17;1.08;;;27.50;48.40;;;;;;2261452;56;22228;-73
2022/08/22 10:45:57;;;;;;;2.75;1.27;;;27.60;47.80;;;;;;2263539;55;20960;-72
2022/08/22 10:48:33;;;;;;;2.20;1.10;;;27.70;47.80;;;;;;2264447;55;20929;-71
2022/08/22 10:51:41;;;;;;;2.97;1.30;;;27.70;47.60;;;;;;2400370;55;21043;-72
2022/08/22 10:54:33;;;;;;;3.25;1.20;;;27.80;47.50;;;;;;2266113;55;21871;-71
2022/08/22 10:57:06;;;;;;;;;;;27.90;47.30;;;;;;2267867;55;20997;-71
2022/08/22 10:59:40;;;;;;;;;;;28.00;47.60;;;;;;2269647;55;20651;-73
2022/08/22 11:02:34;;;;;;;1.80;0.77;;;28.10;47.60;;;;;;2262012;55;20138;-73
2022/08/22 11:06:03;;;;;;;1.70;0.73;;;28.10;47.00;;;;;;2265181;55;21861;-73
2022/08/22 11:09:25;;;;;;;2.92;1.10;;;28.20;47.50;;;;;;2269374;55;20991;-71
2022/08/22 11:11:58;;;;;;;2.65;1.27;;;28.30;46.40;;;;;;2266125;55;20967;-72
2022/08/22 11:18:13;;;;;;;2.62;1.00;;;28.40;45.70;;;;;;2265313;55;20992;-71
2022/08/22 11:21:07;;;;;;;2.35;1.00;;;28.50;45.70;;;;;;2318195;55;21734;-71
2022/08/22 11:23:50;;;;;;;3.17;0.90;;;28.60;45.70;;;;;;2267941;55;21008;-72
2022/08/22 11:26:30;;;;;;;2.75;1.05;;;28.60;45.50;;;;;;2268827;55;21566;-71
2022/08/22 11:30:31;;;;;;;2.55;1.00;;;28.70;45.30;;;;;;2261628;55;20972;-71
2022/08/22 11:34:41;;;;;;;2.65;1.00;;;28.90;45.40;;;;;;2265504;55;20999;-71
2022/08/22 11:39:56;;;;;;;1.90;0.88;;;29.00;45.00;;;;;;2266790;55;21047;-71
2022/08/22 11:42:37;;;;;;;2.35;0.90;;;29.10;44.70;;;;;;2326122;55;21519;-71
2022/08/22 11:45:04;;;;;;;2.20;0.83;;;29.20;44.30;;;;;;2268673;55;21007;-72
2022/08/22 11:47:38;;;;;;;2.05;0.90;;;29.20;44.60;;;;;;2266196;55;21904;-71
2022/08/22 11:50:14;;;;;;;2.28;0.90;;;29.30;44.40;;;;;;2267645;55;21170;-71
2022/08/22 11:55:49;;;;;;;2.22;1.00;;;29.30;44.30;;;;;;2298697;55;20943;-71
2022/08/22 11:58:25;;;;;;;2.37;0.90;;;29.50;44.30;;;;;;2267965;55;21122;-71
2022/08/22 12:01:54;;;;;;;2.45;1.20;;;29.60;43.30;;;;;;2490580;55;21003;-71
2022/08/22 12:04:36;;;;;;;2.10;1.00;;;29.70;43.40;;;;;;2265704;55;21098;-72
2022/08/22 12:07:17;;;;;;;2.45;1.10;;;29.70;43.10;;;;;;2266539;55;21007;-71
2022/08/22 12:10:16;;;;;;;2.67;1.00;;;29.80;43.50;;;;;;2264388;56;20973;-71
2022/08/22 12:12:55;;;;;;;7.05;1.23;;;29.80;42.80;;;;;;2266378;55;20975;-72
2022/08/22 12:15:48;;;;;;;14.45;1.30;;;29.90;43.10;;;;;;2382821;55;21172;-72
2022/08/22 12:18:42;;;;;;;1.87;0.85;;;29.90;43.20;;;;;;2267874;55;21091;-71
2022/08/22 12:24:58;;;;;;;2.25;0.90;;;30.00;42.80;;;;;;2304623;55;21052;-71
2022/08/22 12:28:02;;;;;;;2.37;1.05;;;30.10;42.80;;;;;;2275505;55;20968;-71
2022/08/22 12:31:05;;;;;;;2.92;1.00;;;30.30;42.20;;;;;;2265898;55;21094;-72
2022/08/22 12:34:26;;;;;;;2.03;0.90;;;30.30;41.70;;;;;;2264289;55;21019;-71
2022/08/22 12:37:09;;;;;;;2.60;1.23;;;30.40;41.30;;;;;;2268353;55;21532;-72
2022/08/22 12:40:31;;;;;;;1.92;0.90;;;30.40;41.80;;;;;;2267051;56;20967;-72
2022/08/22 12:43:20;;;;;;;2.22;1.08;;;30.50;41.20;;;;;;2266374;55;20971;-74
2022/08/22 12:48:36;;;;;;;2.75;1.20;;;30.50;41.10;;;;;;2265693;55;20992;-71
2022/08/22 12:53:13;;;;;;;2.60;1.00;;;30.70;41.80;;;;;;2268821;55;20976;-71
2022/08/22 12:56:46;;;;;;;2.05;0.90;;;30.70;40.60;;;;;;2404414;55;20929;-71
2022/08/22 12:59:33;;;;;;;2.20;0.80;;;30.80;40.40;;;;;;2354737;55;21066;-71
2022/08/22 13:02:02;;;;;;;2.60;1.10;;;30.80;40.10;;;;;;2321339;55;21035;-72
2022/08/22 13:04:31;;;;;;;2.40;1.12;;;30.80;40.40;;;;;;2264973;55;21813;-71
2022/08/22 13:07:21;;;;;;;2.12;1.00;;;30.90;40.30;;;;;;2265738;55;21014;-74
2022/08/22 13:09:56;;;;;;;3.33;1.00;;;30.90;39.40;;;;;;2266519;55;21036;-70
2022/08/22 13:12:27;;;;;;;2.70;1.00;;;31.00;39.60;;;;;;2332201;55;20924;-72
2022/08/22 13:14:57;;;;;;;2.10;1.00;;;31.00;39.60;;;;;;2265539;55;21806;-71
2022/08/22 13:17:28;;;;;;;2.83;1.00;;;31.10;39.50;;;;;;2265643;56;20993;-72
2022/08/22 13:20:03;;;;;;;2.28;1.12;;;31.10;39.60;;;;;;2265137;55;20945;-71
2022/08/22 13:22:40;;;;;;;2.85;1.15;;;31.10;39.40;;;;;;2266246;55;20971;-73
2022/08/22 13:25:28;;;;;;;2.65;1.00;;;31.20;39.60;;;;;;2265631;55;20956;-72
2022/08/22 13:27:56;;;;;;;2.62;1.08;;;31.30;39.40;;;;;;2344946;55;21035;-72
2022/08/22 13:30:29;;;;;;;2.65;1.00;;;31.30;39.30;;;;;;2265720;55;21139;-71
2022/08/22 13:33:02;;;;;;;2.10;1.00;;;31.30;38.80;;;;;;2265993;55;20956;-71
2022/08/22 13:35:34;;;;;;;1.83;0.80;;;31.40;38.20;;;;;;2265352;55;21837;-71
2022/08/22 13:38:08;;;;;;;2.53;1.12;;;31.40;38.00;;;;;;2266019;55;20958;-73
2022/08/22 13:40:35;;;;;;;2.92;1.00;;;31.40;37.90;;;;;;2382878;55;21011;-73
2022/08/22 13:43:12;;;;;;;2.08;0.98;;;31.50;38.20;;;;;;2269910;55;20948;-71
2022/08/22 13:45:40;;;;;;;2.20;1.00;;;31.50;37.80;;;;;;2267544;55;21012;-74
2022/08/22 13:48:11;;;;;;;2.35;0.90;;;31.60;38.20;;;;;;2264710;56;21000;-72
2022/08/22 13:51:09;;;;;;;2.80;1.00;;;31.60;38.00;;;;;;2290403;55;21016;-72
2022/08/22 13:53:43;;;;;;;2.45;0.98;;;31.70;37.20;;;;;;2261335;56;21012;-70
2022/08/22 13:56:17;;;;;;;3.00;1.00;;;31.70;37.50;;;;;;2264776;56;20961;-70
2022/08/22 13:58:45;;;;;;;2.35;0.82;;;31.80;37.40;;;;;;2265540;56;20999;-71
2022/08/22 14:01:26;;;;;;;2.37;1.10;;;31.80;37.50;;;;;;2452875;55;21586;-70
2022/08/22 14:04:00;;;;;;;3.03;1.20;;;31.90;37.10;;;;;;2266100;55;21003;-72
2022/08/22 14:06:33;;;;;;;1.92;0.90;;;31.90;36.70;;;;;;2389009;55;21035;-70
2022/08/22 14:09:07;;;;;;;2.45;1.02;;;31.90;36.60;;;;;;2268930;55;20973;-69
2022/08/22 14:11:52;;;;;;;2.35;0.95;;;32.00;36.40;;;;;;2265593;55;20924;-70
2022/08/22 14:14:30;;;;;;;1.95;0.77;;;32.00;36.20;;;;;;2266255;55;21039;-72
2022/08/22 14:16:57;;;;;;;2.25;0.90;;;32.10;35.80;;;;;;2245237;56;21146;-70
2022/08/22 14:20:26;;;;;;;2.05;0.80;;;32.10;36.40;;;;;;2266626;55;20984;-69
2022/08/22 14:22:58;;;;;;;2.05;0.82;;;32.10;35.90;;;;;;2269171;55;20939;-70
2022/08/22 14:25:27;;;;;;;2.15;0.90;;;32.10;36.00;;;;;;2268379;56;21004;-72
2022/08/22 14:27:57;;;;;;;2.03;0.90;;;32.20;36.00;;;;;;2263371;55;20979;-70
2022/08/22 14:30:49;;;;;;;2.53;1.08;;;32.20;35.90;;;;;;2266808;55;21707;-71
2022/08/22 14:33:26;;;;;;;1.95;0.80;;;32.30;34.90;;;;;;2266320;55;20966;-70
2022/08/22 14:35:58;;;;;;;2.65;1.00;;;32.30;35.50;;;;;;2265555;55;20982;-70
2022/08/22 14:38:48;;;;;;;2.83;1.00;;;32.30;35.20;;;;;;2262166;55;21099;-71
2022/08/22 14:41:30;;;;;;;2.22;0.80;;;32.30;34.50;;;;;;2266154;55;21344;-71
2022/08/22 14:44:05;;;;;;;2.53;1.00;;;32.30;34.60;;;;;;2268547;55;21020;-70
2022/08/22 14:46:55;;;;;;;1.98;0.80;;;32.30;34.60;;;;;;2265483;55;20944;-70
2022/08/22 14:49:32;;;;;;;1.57;0.80;;;32.30;34.60;;;;;;2271576;55;21049;-70
2022/08/22 14:52:08;;;;;;;2.33;1.12;;;32.40;34.40;;;;;;2264852;55;21468;-72
2022/08/22 14:54:35;;;;;;;2.62;0.80;;;32.40;34.50;;;;;;2245166;56;20989;-69
2022/08/22 14:57:02;;;;;;;2.62;1.10;;;32.40;34.60;;;;;;2261610;56;21012;-71
2022/08/22 14:59:49;;;;;;;2.05;0.85;;;32.30;34.50;;;;;;2266215;55;21059;-70
2022/08/22 15:02:29;;;;;;;2.55;1.10;;;32.40;34.00;;;;;;2265701;55;21002;-71
2022/08/22 15:04:57;;;;;;;2.47;0.93;;;32.40;34.10;;;;;;2274102;55;21007;-70
2022/08/22 15:07:31;;;;;;;2.62;1.00;;;32.40;34.60;;;;;;2265514;55;20995;-70
2022/08/22 15:10:22;;;;;;;3.85;1.30;;;32.40;34.50;;;;;;2266484;55;20976;-70
2022/08/22 15:12:53;;;;;;;2.05;0.85;;;32.40;34.10;;;;;;2264594;56;20936;-70
2022/08/22 15:15:34;;;;;;;2.53;1.10;;;32.40;34.20;;;;;;2265537;55;20995;-70
2022/08/22 15:18:00;;;;;;;2.62;1.10;;;32.40;33.90;;;;;;2268893;55;21044;-70
2022/08/22 15:20:36;;;;;;;2.90;0.95;;;32.40;34.20;;;;;;2260940;56;21019;-70
2022/08/22 15:23:41;;;;;;;2.03;0.88;;;32.40;33.60;;;;;;2265423;55;20955;-73
2022/08/22 15:26:08;;;;;;;2.10;0.77;;;32.40;33.90;;;;;;2264977;55;21035;-73
2022/08/22 15:28:36;;;;;;;3.60;1.20;;;32.40;33.90;;;;;;2265785;55;20976;-70
2022/08/22 15:31:15;;;;;;;2.50;1.00;;;32.40;33.60;;;;;;2268123;55;21734;-71
2022/08/22 15:33:42;;;;;;;1.90;0.90;;;32.40;33.00;;;;;;2264908;55;21676;-71
2022/08/22 15:36:24;;;;;;;2.15;0.90;;;32.40;33.40;;;;;;2290146;55;21074;-70
2022/08/22 15:38:54;;;;;;;2.58;0.90;;;32.30;33.00;;;;;;2265552;55;21076;-70
2022/08/22 15:41:46;;;;;;;2.80;1.10;;;32.30;33.40;;;;;;2266070;55;21027;-70
2022/08/22 15:44:35;;;;;;;2.75;1.00;;;32.30;33.30;;;;;;2243768;56;20983;-70
2022/08/22 15:47:38;;;;;;;2.35;0.98;;;32.30;32.90;;;;;;2262797;55;21062;-70
2022/08/22 15:50:25;;;;;;;2.78;1.00;;;32.30;32.70;;;;;;2267522;55;20932;-72
2022/08/22 15:53:20;;;;;;;1.98;0.93;;;32.30;33.10;;;;;;2265414;55;21011;-70
2022/08/22 15:56:33;;;;;;;2.85;0.98;;;32.30;32.50;;;;;;2267310;56;21050;-70
2022/08/22 16:02:51;;;;;;;1.67;0.77;;;32.30;32.80;;;;;;2264256;55;20999;-70
2022/08/22 16:05:34;;;;;;;1.87;0.85;;;32.30;33.40;;;;;;2243905;56;20968;-70
2022/08/22 16:08:10;;;;;;;2.40;0.90;;;32.30;32.90;;;;;;2264287;55;21464;-71
2022/08/22 16:12:08;;;;;;;2.25;0.82;;;32.20;33.00;;;;;;2264909;55;20994;-70
2022/08/22 16:14:46;;;;;;;1.83;0.70;;;32.20;33.10;;;;;;2264984;55;21523;-69
2022/08/22 16:19:14;;;;;;;2.75;1.10;;;32.20;32.80;;;;;;2495795;55;21708;-67
2022/08/22 16:22:04;;;;;;;2.53;1.10;;;32.20;33.30;;;;;;2274687;55;21035;-67
2022/08/22 16:24:31;;;;;;;2.78;1.12;;;32.10;32.60;;;;;;2377456;55;20968;-70